sensor_id;sensor_type;location;lat;lon;timestamp;P1;durP1;ratioP1;P2;durP2;ratioP2
52266;SDS011;38223;50.940;4.034;2023-03-01T00:04:50;12.37;;;9.25;;
52266;SDS011;38223;50.940;4.034;2023-03-01T00:07:20;11.33;;;10.20;;
52266;SDS011;38223;50.940;4.034;2023-03-01T00:09:51;13.68;;;10.40;;
52266;SDS011;38223;50.940;4.034;2023-03-01T00:12:24;10.60;;;9.48;;
52266;SDS011;38223;50.940;4.034;2023-03-01T00:14:56;12.78;;;9.80;;
52266;SDS011;38223;50.940;4.034;2023-03-01T00:17:27;11.35;;;10.35;;
52266;SDS011;38223;50.940;4.034;2023-03-01T00:19:57;11.85;;;10.60;;
52266;SDS011;38223;50.940;4.034;2023-03-01T00:22:27;13.32;;;10.30;;
52266;SDS011;38223;50.940;4.034;2023-03-01T00:24:55;11.25;;;10.03;;
52266;SDS011;38223;50.940;4.034;2023-03-01T00:27:27;11.68;;;10.08;;
52266;SDS011;38223;50.940;4.034;2023-03-01T00:29:55;12.10;;;9.53;;
52266;SDS011;38223;50.940;4.034;2023-03-01T00:32:22;11.73;;;10.20;;
52266;SDS011;38223;50.940;4.034;2023-03-01T00:34:50;13.98;;;10.28;;
52266;SDS011;38223;50.940;4.034;2023-03-01T00:37:23;11.80;;;10.08;;
52266;SDS011;38223;50.940;4.034;2023-03-01T00:39:55;12.80;;;9.80;;
52266;SDS011;38223;50.940;4.034;2023-03-01T00:42:23;11.95;;;10.75;;
52266;SDS011;38223;50.940;4.034;2023-03-01T00:44:50;11.33;;;10.20;;
52266;SDS011;38223;50.940;4.034;2023-03-01T00:47:19;14.18;;;10.05;;
52266;SDS011;38223;50.940;4.034;2023-03-01T00:49:48;13.72;;;10.48;;
52266;SDS011;38223;50.940;4.034;2023-03-01T00:52:16;11.35;;;9.98;;
52266;SDS011;38223;50.940;4.034;2023-03-01T00:54:43;12.03;;;10.18;;
52266;SDS011;38223;50.940;4.034;2023-03-01T00:57:12;11.45;;;10.23;;
52266;SDS011;38223;50.940;4.034;2023-03-01T00:59:40;11.15;;;10.05;;
52266;SDS011;38223;50.940;4.034;2023-03-01T01:02:09;15.90;;;10.80;;
52266;SDS011;38223;50.940;4.034;2023-03-01T01:04:39;12.15;;;9.95;;
52266;SDS011;38223;50.940;4.034;2023-03-01T01:07:13;11.12;;;9.90;;
52266;SDS011;38223;50.940;4.034;2023-03-01T01:09:46;13.70;;;10.15;;
52266;SDS011;38223;50.940;4.034;2023-03-01T01:12:13;13.43;;;11.25;;
52266;SDS011;38223;50.940;4.034;2023-03-01T01:14:41;12.50;;;9.40;;
52266;SDS011;38223;50.940;4.034;2023-03-01T01:17:09;11.48;;;10.35;;
52266;SDS011;38223;50.940;4.034;2023-03-01T01:19:36;11.22;;;9.83;;
52266;SDS011;38223;50.940;4.034;2023-03-01T01:22:04;10.38;;;9.43;;
52266;SDS011;38223;50.940;4.034;2023-03-01T01:24:32;11.28;;;9.75;;
52266;SDS011;38223;50.940;4.034;2023-03-01T01:27:05;9.90;;;9.00;;
52266;SDS011;38223;50.940;4.034;2023-03-01T01:29:35;11.12;;;8.83;;
52266;SDS011;38223;50.940;4.034;2023-03-01T01:32:07;10.13;;;9.18;;
52266;SDS011;38223;50.940;4.034;2023-03-01T01:34:37;9.88;;;8.88;;
52266;SDS011;38223;50.940;4.034;2023-03-01T01:37:12;11.40;;;9.33;;
52266;SDS011;38223;50.940;4.034;2023-03-01T01:39:44;11.73;;;8.80;;
52266;SDS011;38223;50.940;4.034;2023-03-01T01:42:18;14.15;;;10.08;;
52266;SDS011;38223;50.940;4.034;2023-03-01T01:45:15;10.23;;;9.28;;
52266;SDS011;38223;50.940;4.034;2023-03-01T01:47:36;11.00;;;9.55;;
52266;SDS011;38223;50.940;4.034;2023-03-01T01:50:14;11.25;;;8.48;;
52266;SDS011;38223;50.940;4.034;2023-03-01T01:52:42;9.78;;;8.70;;
52266;SDS011;38223;50.940;4.034;2023-03-01T01:55:19;11.35;;;9.23;;
52266;SDS011;38223;50.940;4.034;2023-03-01T01:58:01;11.78;;;9.35;;
52266;SDS011;38223;50.940;4.034;2023-03-01T02:00:28;10.05;;;8.60;;
52266;SDS011;38223;50.940;4.034;2023-03-01T02:03:06;11.68;;;8.83;;
52266;SDS011;38223;50.940;4.034;2023-03-01T02:08:36;10.25;;;8.45;;
52266;SDS011;38223;50.940;4.034;2023-03-01T02:11:25;9.23;;;8.35;;
52266;SDS011;38223;50.940;4.034;2023-03-01T02:13:53;9.33;;;8.43;;
52266;SDS011;38223;50.940;4.034;2023-03-01T02:16:21;9.25;;;8.13;;
52266;SDS011;38223;50.940;4.034;2023-03-01T02:18:49;9.50;;;8.38;;
52266;SDS011;38223;50.940;4.034;2023-03-01T02:23:59;8.75;;;7.85;;
52266;SDS011;38223;50.940;4.034;2023-03-01T02:26:31;10.98;;;8.63;;
52266;SDS011;38223;50.940;4.034;2023-03-01T02:29:11;10.32;;;8.38;;
52266;SDS011;38223;50.940;4.034;2023-03-01T02:31:43;10.15;;;8.03;;
52266;SDS011;38223;50.940;4.034;2023-03-01T02:34:17;8.25;;;7.22;;
52266;SDS011;38223;50.940;4.034;2023-03-01T02:36:47;9.35;;;8.35;;
52266;SDS011;38223;50.940;4.034;2023-03-01T02:39:23;9.68;;;8.73;;
52266;SDS011;38223;50.940;4.034;2023-03-01T02:41:56;10.35;;;8.43;;
52266;SDS011;38223;50.940;4.034;2023-03-01T02:44:24;11.57;;;8.60;;
52266;SDS011;38223;50.940;4.034;2023-03-01T02:46:53;12.90;;;9.68;;
52266;SDS011;38223;50.940;4.034;2023-03-01T02:49:24;16.02;;;9.68;;
52266;SDS011;38223;50.940;4.034;2023-03-01T02:55:11;12.70;;;10.23;;
52266;SDS011;38223;50.940;4.034;2023-03-01T02:57:45;13.72;;;10.53;;
52266;SDS011;38223;50.940;4.034;2023-03-01T03:00:25;15.13;;;10.88;;
52266;SDS011;38223;50.940;4.034;2023-03-01T03:03:00;15.80;;;9.33;;
52266;SDS011;38223;50.940;4.034;2023-03-01T03:05:30;13.18;;;9.90;;
52266;SDS011;38223;50.940;4.034;2023-03-01T03:08:05;11.80;;;9.00;;
52266;SDS011;38223;50.940;4.034;2023-03-01T03:10:37;13.88;;;10.00;;
52266;SDS011;38223;50.940;4.034;2023-03-01T03:13:11;16.95;;;9.55;;
52266;SDS011;38223;50.940;4.034;2023-03-01T03:15:43;11.28;;;8.63;;
52266;SDS011;38223;50.940;4.034;2023-03-01T03:18:20;10.25;;;9.20;;
52266;SDS011;38223;50.940;4.034;2023-03-01T03:20:50;10.70;;;9.60;;
52266;SDS011;38223;50.940;4.034;2023-03-01T03:23:19;13.30;;;8.98;;
52266;SDS011;38223;50.940;4.034;2023-03-01T03:25:52;9.80;;;8.18;;
52266;SDS011;38223;50.940;4.034;2023-03-01T03:28:25;9.10;;;8.20;;
52266;SDS011;38223;50.940;4.034;2023-03-01T03:31:13;11.10;;;8.68;;
52266;SDS011;38223;50.940;4.034;2023-03-01T03:33:40;10.08;;;8.83;;
52266;SDS011;38223;50.940;4.034;2023-03-01T03:36:08;12.50;;;8.13;;
52266;SDS011;38223;50.940;4.034;2023-03-01T03:38:42;12.05;;;8.88;;
52266;SDS011;38223;50.940;4.034;2023-03-01T03:41:12;11.93;;;8.70;;
52266;SDS011;38223;50.940;4.034;2023-03-01T03:43:46;9.35;;;8.45;;
52266;SDS011;38223;50.940;4.034;2023-03-01T03:46:15;9.95;;;8.95;;
52266;SDS011;38223;50.940;4.034;2023-03-01T03:48:47;9.08;;;8.18;;
52266;SDS011;38223;50.940;4.034;2023-03-01T03:51:18;9.78;;;8.88;;
52266;SDS011;38223;50.940;4.034;2023-03-01T03:53:52;10.72;;;8.53;;
52266;SDS011;38223;50.940;4.034;2023-03-01T03:56:21;9.37;;;8.37;;
52266;SDS011;38223;50.940;4.034;2023-03-01T03:58:55;10.28;;;8.25;;
52266;SDS011;38223;50.940;4.034;2023-03-01T04:01:30;9.93;;;8.93;;
52266;SDS011;38223;50.940;4.034;2023-03-01T04:04:04;9.65;;;8.68;;
52266;SDS011;38223;50.940;4.034;2023-03-01T04:06:33;12.10;;;8.38;;
52266;SDS011;38223;50.940;4.034;2023-03-01T04:09:05;9.75;;;8.75;;
52266;SDS011;38223;50.940;4.034;2023-03-01T04:11:33;10.40;;;8.03;;
52266;SDS011;38223;50.940;4.034;2023-03-01T04:14:05;11.00;;;8.65;;
52266;SDS011;38223;50.940;4.034;2023-03-01T04:16:39;8.53;;;7.72;;
52266;SDS011;38223;50.940;4.034;2023-03-01T04:19:11;10.98;;;8.85;;
52266;SDS011;38223;50.940;4.034;2023-03-01T04:21:43;9.10;;;8.28;;
52266;SDS011;38223;50.940;4.034;2023-03-01T04:24:12;9.68;;;8.55;;
52266;SDS011;38223;50.940;4.034;2023-03-01T04:26:42;9.45;;;8.50;;
52266;SDS011;38223;50.940;4.034;2023-03-01T04:29:15;9.53;;;8.63;;
52266;SDS011;38223;50.940;4.034;2023-03-01T04:31:47;9.80;;;8.68;;
52266;SDS011;38223;50.940;4.034;2023-03-01T04:34:16;11.60;;;8.98;;
52266;SDS011;38223;50.940;4.034;2023-03-01T04:36:46;11.25;;;8.38;;
52266;SDS011;38223;50.940;4.034;2023-03-01T04:39:16;9.10;;;8.20;;
52266;SDS011;38223;50.940;4.034;2023-03-01T04:41:46;10.40;;;9.13;;
52266;SDS011;38223;50.940;4.034;2023-03-01T04:44:18;10.23;;;9.20;;
52266;SDS011;38223;50.940;4.034;2023-03-01T04:46:52;11.55;;;8.00;;
52266;SDS011;38223;50.940;4.034;2023-03-01T04:49:22;9.80;;;8.30;;
52266;SDS011;38223;50.940;4.034;2023-03-01T04:51:57;9.33;;;8.25;;
52266;SDS011;38223;50.940;4.034;2023-03-01T04:54:26;9.83;;;8.25;;
52266;SDS011;38223;50.940;4.034;2023-03-01T04:56:57;8.95;;;8.15;;
52266;SDS011;38223;50.940;4.034;2023-03-01T04:59:31;12.05;;;8.50;;
52266;SDS011;38223;50.940;4.034;2023-03-01T05:04:31;11.40;;;8.50;;
52266;SDS011;38223;50.940;4.034;2023-03-01T05:07:04;12.13;;;8.83;;
52266;SDS011;38223;50.940;4.034;2023-03-01T05:09:37;11.20;;;8.88;;
52266;SDS011;38223;50.940;4.034;2023-03-01T05:12:06;8.95;;;8.05;;
52266;SDS011;38223;50.940;4.034;2023-03-01T05:14:37;11.53;;;9.13;;
52266;SDS011;38223;50.940;4.034;2023-03-01T05:17:08;12.55;;;8.63;;
52266;SDS011;38223;50.940;4.034;2023-03-01T05:19:40;12.18;;;9.10;;
52266;SDS011;38223;50.940;4.034;2023-03-01T05:22:11;18.23;;;8.48;;
52266;SDS011;38223;50.940;4.034;2023-03-01T05:24:40;9.45;;;8.48;;
52266;SDS011;38223;50.940;4.034;2023-03-01T05:27:09;12.88;;;8.23;;
52266;SDS011;38223;50.940;4.034;2023-03-01T05:29:40;22.20;;;9.40;;
52266;SDS011;38223;50.940;4.034;2023-03-01T05:32:15;10.30;;;8.83;;
52266;SDS011;38223;50.940;4.034;2023-03-01T05:34:53;12.68;;;8.50;;
52266;SDS011;38223;50.940;4.034;2023-03-01T05:37:27;15.25;;;9.95;;
52266;SDS011;38223;50.940;4.034;2023-03-01T05:39:56;11.30;;;8.85;;
52266;SDS011;38223;50.940;4.034;2023-03-01T05:42:30;11.90;;;9.23;;
52266;SDS011;38223;50.940;4.034;2023-03-01T05:45:00;11.95;;;9.08;;
52266;SDS011;38223;50.940;4.034;2023-03-01T05:47:35;10.80;;;8.68;;
52266;SDS011;38223;50.940;4.034;2023-03-01T05:50:07;14.95;;;9.68;;
52266;SDS011;38223;50.940;4.034;2023-03-01T05:52:39;14.58;;;8.68;;
52266;SDS011;38223;50.940;4.034;2023-03-01T05:55:11;18.52;;;8.88;;
52266;SDS011;38223;50.940;4.034;2023-03-01T05:57:41;16.77;;;9.40;;
52266;SDS011;38223;50.940;4.034;2023-03-01T06:00:10;15.90;;;9.83;;
52266;SDS011;38223;50.940;4.034;2023-03-01T06:02:42;14.23;;;9.53;;
52266;SDS011;38223;50.940;4.034;2023-03-01T06:05:17;13.90;;;9.03;;
52266;SDS011;38223;50.940;4.034;2023-03-01T06:10:35;12.88;;;9.70;;
52266;SDS011;38223;50.940;4.034;2023-03-01T06:13:04;16.00;;;10.30;;
52266;SDS011;38223;50.940;4.034;2023-03-01T06:15:31;11.63;;;9.35;;
52266;SDS011;38223;50.940;4.034;2023-03-01T06:18:01;11.67;;;10.03;;
52266;SDS011;38223;50.940;4.034;2023-03-01T06:20:37;16.35;;;9.63;;
52266;SDS011;38223;50.940;4.034;2023-03-01T06:23:09;15.50;;;10.18;;
52266;SDS011;38223;50.940;4.034;2023-03-01T06:25:40;11.90;;;10.55;;
52266;SDS011;38223;50.940;4.034;2023-03-01T06:28:11;15.05;;;9.83;;
52266;SDS011;38223;50.940;4.034;2023-03-01T06:30:43;18.67;;;9.28;;
52266;SDS011;38223;50.940;4.034;2023-03-01T06:33:21;13.50;;;10.65;;
52266;SDS011;38223;50.940;4.034;2023-03-01T06:35:50;19.50;;;10.23;;
52266;SDS011;38223;50.940;4.034;2023-03-01T06:38:19;23.25;;;10.85;;
52266;SDS011;38223;50.940;4.034;2023-03-01T06:40:51;26.05;;;10.53;;
52266;SDS011;38223;50.940;4.034;2023-03-01T06:43:22;21.55;;;9.88;;
52266;SDS011;38223;50.940;4.034;2023-03-01T06:45:52;27.50;;;10.45;;
52266;SDS011;38223;50.940;4.034;2023-03-01T06:48:25;19.10;;;10.72;;
52266;SDS011;38223;50.940;4.034;2023-03-01T06:50:57;16.95;;;10.53;;
52266;SDS011;38223;50.940;4.034;2023-03-01T06:53:27;14.13;;;10.25;;
52266;SDS011;38223;50.940;4.034;2023-03-01T06:56:04;19.62;;;10.03;;
52266;SDS011;38223;50.940;4.034;2023-03-01T06:58:34;18.02;;;9.75;;
52266;SDS011;38223;50.940;4.034;2023-03-01T07:01:07;10.40;;;9.38;;
52266;SDS011;38223;50.940;4.034;2023-03-01T07:03:40;12.28;;;10.20;;
52266;SDS011;38223;50.940;4.034;2023-03-01T07:06:27;12.35;;;9.73;;
52266;SDS011;38223;50.940;4.034;2023-03-01T07:08:55;17.70;;;11.28;;
52266;SDS011;38223;50.940;4.034;2023-03-01T07:11:25;11.63;;;10.43;;
52266;SDS011;38223;50.940;4.034;2023-03-01T07:13:58;14.50;;;10.32;;
52266;SDS011;38223;50.940;4.034;2023-03-01T07:16:27;18.62;;;10.18;;
52266;SDS011;38223;50.940;4.034;2023-03-01T07:18:54;22.00;;;10.98;;
52266;SDS011;38223;50.940;4.034;2023-03-01T07:21:24;15.00;;;10.35;;
52266;SDS011;38223;50.940;4.034;2023-03-01T07:23:55;23.67;;;11.10;;
52266;SDS011;38223;50.940;4.034;2023-03-01T07:26:28;19.17;;;11.28;;
52266;SDS011;38223;50.940;4.034;2023-03-01T07:28:59;15.35;;;11.22;;
52266;SDS011;38223;50.940;4.034;2023-03-01T07:31:48;15.93;;;10.93;;
52266;SDS011;38223;50.940;4.034;2023-03-01T07:34:17;19.15;;;10.93;;
52266;SDS011;38223;50.940;4.034;2023-03-01T07:36:50;20.37;;;11.43;;
52266;SDS011;38223;50.940;4.034;2023-03-01T07:39:20;15.48;;;9.90;;
52266;SDS011;38223;50.940;4.034;2023-03-01T07:41:51;14.28;;;10.63;;
52266;SDS011;38223;50.940;4.034;2023-03-01T07:44:20;15.28;;;9.53;;
52266;SDS011;38223;50.940;4.034;2023-03-01T07:46:55;13.72;;;10.40;;
52266;SDS011;38223;50.940;4.034;2023-03-01T07:49:23;18.57;;;11.43;;
52266;SDS011;38223;50.940;4.034;2023-03-01T07:51:56;15.88;;;10.55;;
52266;SDS011;38223;50.940;4.034;2023-03-01T07:54:24;28.65;;;11.35;;
52266;SDS011;38223;50.940;4.034;2023-03-01T07:56:52;14.63;;;9.20;;
52266;SDS011;38223;50.940;4.034;2023-03-01T07:59:20;24.65;;;9.45;;
52266;SDS011;38223;50.940;4.034;2023-03-01T08:01:50;11.45;;;9.98;;
52266;SDS011;38223;50.940;4.034;2023-03-01T08:04:18;20.48;;;10.75;;
52266;SDS011;38223;50.940;4.034;2023-03-01T08:06:49;13.30;;;8.90;;
52266;SDS011;38223;50.940;4.034;2023-03-01T08:09:20;12.00;;;9.48;;
52266;SDS011;38223;50.940;4.034;2023-03-01T08:11:49;15.38;;;9.98;;
52266;SDS011;38223;50.940;4.034;2023-03-01T08:14:18;12.57;;;9.50;;
52266;SDS011;38223;50.940;4.034;2023-03-01T08:16:49;11.53;;;9.80;;
52266;SDS011;38223;50.940;4.034;2023-03-01T08:19:21;12.95;;;9.40;;
52266;SDS011;38223;50.940;4.034;2023-03-01T08:24:19;13.45;;;9.23;;
52266;SDS011;38223;50.940;4.034;2023-03-01T08:26:48;13.72;;;10.08;;
52266;SDS011;38223;50.940;4.034;2023-03-01T08:29:17;16.17;;;9.53;;
52266;SDS011;38223;50.940;4.034;2023-03-01T08:31:45;19.80;;;10.28;;
52266;SDS011;38223;50.940;4.034;2023-03-01T08:34:16;12.82;;;9.63;;
52266;SDS011;38223;50.940;4.034;2023-03-01T08:36:50;13.53;;;9.88;;
52266;SDS011;38223;50.940;4.034;2023-03-01T08:39:21;9.75;;;7.97;;
52266;SDS011;38223;50.940;4.034;2023-03-01T08:41:49;9.33;;;8.23;;
52266;SDS011;38223;50.940;4.034;2023-03-01T08:44:22;9.78;;;8.05;;
52266;SDS011;38223;50.940;4.034;2023-03-01T08:46:56;10.18;;;8.10;;
52266;SDS011;38223;50.940;4.034;2023-03-01T08:49:26;9.85;;;8.33;;
52266;SDS011;38223;50.940;4.034;2023-03-01T08:51:55;11.63;;;9.00;;
52266;SDS011;38223;50.940;4.034;2023-03-01T08:54:24;10.38;;;8.45;;
52266;SDS011;38223;50.940;4.034;2023-03-01T08:56:54;10.82;;;9.00;;
52266;SDS011;38223;50.940;4.034;2023-03-01T08:59:25;12.13;;;8.93;;
52266;SDS011;38223;50.940;4.034;2023-03-01T09:01:58;11.15;;;9.08;;
52266;SDS011;38223;50.940;4.034;2023-03-01T09:04:26;13.10;;;9.35;;
52266;SDS011;38223;50.940;4.034;2023-03-01T09:07:00;10.08;;;9.18;;
52266;SDS011;38223;50.940;4.034;2023-03-01T09:09:30;12.05;;;8.28;;
52266;SDS011;38223;50.940;4.034;2023-03-01T09:11:59;9.45;;;8.63;;
52266;SDS011;38223;50.940;4.034;2023-03-01T09:14:33;21.75;;;9.18;;
52266;SDS011;38223;50.940;4.034;2023-03-01T09:17:07;10.53;;;8.73;;
52266;SDS011;38223;50.940;4.034;2023-03-01T09:19:38;19.85;;;9.00;;
52266;SDS011;38223;50.940;4.034;2023-03-01T09:22:25;9.85;;;8.00;;
52266;SDS011;38223;50.940;4.034;2023-03-01T09:24:53;11.25;;;8.40;;
52266;SDS011;38223;50.940;4.034;2023-03-01T09:27:26;11.63;;;8.78;;
52266;SDS011;38223;50.940;4.034;2023-03-01T09:29:57;11.05;;;8.90;;
52266;SDS011;38223;50.940;4.034;2023-03-01T09:32:29;9.55;;;8.65;;
52266;SDS011;38223;50.940;4.034;2023-03-01T09:35:01;11.35;;;8.68;;
52266;SDS011;38223;50.940;4.034;2023-03-01T09:37:33;12.28;;;8.63;;
52266;SDS011;38223;50.940;4.034;2023-03-01T09:40:07;11.38;;;8.08;;
52266;SDS011;38223;50.940;4.034;2023-03-01T09:42:44;13.75;;;8.65;;
52266;SDS011;38223;50.940;4.034;2023-03-01T09:45:18;10.20;;;8.25;;
52266;SDS011;38223;50.940;4.034;2023-03-01T09:48:01;11.70;;;9.05;;
52266;SDS011;38223;50.940;4.034;2023-03-01T09:50:34;9.63;;;8.63;;
52266;SDS011;38223;50.940;4.034;2023-03-01T09:53:06;12.05;;;8.75;;
52266;SDS011;38223;50.940;4.034;2023-03-01T09:55:48;10.50;;;8.50;;
52266;SDS011;38223;50.940;4.034;2023-03-01T10:03:42;9.38;;;8.45;;
52266;SDS011;38223;50.940;4.034;2023-03-01T10:06:17;10.53;;;8.95;;
52266;SDS011;38223;50.940;4.034;2023-03-01T10:09:00;11.93;;;8.55;;
52266;SDS011;38223;50.940;4.034;2023-03-01T10:11:37;9.88;;;8.25;;
52266;SDS011;38223;50.940;4.034;2023-03-01T10:17:24;9.05;;;8.18;;
52266;SDS011;38223;50.940;4.034;2023-03-01T10:22:26;9.18;;;8.30;;
52266;SDS011;38223;50.940;4.034;2023-03-01T10:24:57;10.03;;;8.75;;
52266;SDS011;38223;50.940;4.034;2023-03-01T10:30:12;10.25;;;8.48;;
52266;SDS011;38223;50.940;4.034;2023-03-01T10:32:45;9.28;;;8.20;;
52266;SDS011;38223;50.940;4.034;2023-03-01T10:35:18;8.70;;;7.53;;
52266;SDS011;38223;50.940;4.034;2023-03-01T10:38:04;12.07;;;7.50;;
52266;SDS011;38223;50.940;4.034;2023-03-01T10:40:52;10.15;;;8.58;;
52266;SDS011;38223;50.940;4.034;2023-03-01T10:43:28;8.83;;;8.03;;
52266;SDS011;38223;50.940;4.034;2023-03-01T10:45:58;9.53;;;7.95;;
52266;SDS011;38223;50.940;4.034;2023-03-01T10:48:29;10.45;;;8.48;;
52266;SDS011;38223;50.940;4.034;2023-03-01T10:53:48;8.53;;;7.62;;
52266;SDS011;38223;50.940;4.034;2023-03-01T10:56:12;9.60;;;7.55;;
52266;SDS011;38223;50.940;4.034;2023-03-01T10:59:01;12.60;;;8.25;;
52266;SDS011;38223;50.940;4.034;2023-03-01T11:01:36;10.70;;;8.13;;
52266;SDS011;38223;50.940;4.034;2023-03-01T11:06:43;10.00;;;7.80;;
52266;SDS011;38223;50.940;4.034;2023-03-01T11:09:20;8.30;;;7.53;;
52266;SDS011;38223;50.940;4.034;2023-03-01T11:11:54;8.45;;;7.67;;
52266;SDS011;38223;50.940;4.034;2023-03-01T11:14:29;14.03;;;7.53;;
52266;SDS011;38223;50.940;4.034;2023-03-01T11:17:00;10.30;;;7.25;;
52266;SDS011;38223;50.940;4.034;2023-03-01T11:19:34;12.47;;;7.25;;
52266;SDS011;38223;50.940;4.034;2023-03-01T11:22:19;8.43;;;7.62;;
52266;SDS011;38223;50.940;4.034;2023-03-01T11:27:25;8.35;;;7.55;;
52266;SDS011;38223;50.940;4.034;2023-03-01T11:30:13;8.93;;;7.05;;
52266;SDS011;38223;50.940;4.034;2023-03-01T11:35:47;10.60;;;6.90;;
52266;SDS011;38223;50.940;4.034;2023-03-01T11:38:22;8.53;;;7.72;;
52266;SDS011;38223;50.940;4.034;2023-03-01T11:40:57;8.08;;;7.30;;
52266;SDS011;38223;50.940;4.034;2023-03-01T11:43:32;8.33;;;7.53;;
52266;SDS011;38223;50.940;4.034;2023-03-01T11:46:24;8.93;;;7.83;;
52266;SDS011;38223;50.940;4.034;2023-03-01T11:49:12;9.45;;;8.00;;
52266;SDS011;38223;50.940;4.034;2023-03-01T11:57:38;9.05;;;7.62;;
52266;SDS011;38223;50.940;4.034;2023-03-01T12:09:21;7.75;;;6.97;;
52266;SDS011;38223;50.940;4.034;2023-03-01T12:12:24;8.43;;;7.60;;
52266;SDS011;38223;50.940;4.034;2023-03-01T12:18:12;9.03;;;7.87;;
52266;SDS011;38223;50.940;4.034;2023-03-01T12:29:30;8.25;;;7.08;;
52266;SDS011;38223;50.940;4.034;2023-03-01T12:34:45;8.13;;;7.33;;
52266;SDS011;38223;50.940;4.034;2023-03-01T12:40:20;10.20;;;6.08;;
52266;SDS011;38223;50.940;4.034;2023-03-01T12:48:08;8.85;;;4.97;;
52266;SDS011;38223;50.940;4.034;2023-03-01T12:50:52;8.28;;;5.80;;
52266;SDS011;38223;50.940;4.034;2023-03-01T12:53:27;6.72;;;5.65;;
52266;SDS011;38223;50.940;4.034;2023-03-01T12:55:58;8.38;;;5.05;;
52266;SDS011;38223;50.940;4.034;2023-03-01T12:58:39;6.97;;;5.30;;
52266;SDS011;38223;50.940;4.034;2023-03-01T13:01:04;8.18;;;6.60;;
52266;SDS011;38223;50.940;4.034;2023-03-01T13:09:17;8.85;;;6.97;;
52266;SDS011;38223;50.940;4.034;2023-03-01T13:11:42;7.03;;;6.25;;
52266;SDS011;38223;50.940;4.034;2023-03-01T13:16:55;7.05;;;6.35;;
52266;SDS011;38223;50.940;4.034;2023-03-01T13:21:49;12.07;;;6.33;;
52266;SDS011;38223;50.940;4.034;2023-03-01T13:32:24;6.72;;;5.37;;
52266;SDS011;38223;50.940;4.034;2023-03-01T13:35:02;9.68;;;5.40;;
52266;SDS011;38223;50.940;4.034;2023-03-01T13:37:35;6.97;;;5.58;;
52266;SDS011;38223;50.940;4.034;2023-03-01T13:40:07;6.58;;;5.50;;
52266;SDS011;38223;50.940;4.034;2023-03-01T13:42:47;6.30;;;5.15;;
52266;SDS011;38223;50.940;4.034;2023-03-01T13:48:01;8.25;;;6.00;;
52266;SDS011;38223;50.940;4.034;2023-03-01T13:50:28;7.33;;;5.15;;
52266;SDS011;38223;50.940;4.034;2023-03-01T13:55:37;7.35;;;6.55;;
52266;SDS011;38223;50.940;4.034;2023-03-01T13:58:28;6.83;;;5.17;;
52266;SDS011;38223;50.940;4.034;2023-03-01T14:01:00;6.45;;;5.80;;
52266;SDS011;38223;50.940;4.034;2023-03-01T14:03:33;6.55;;;5.87;;
52266;SDS011;38223;50.940;4.034;2023-03-01T14:06:04;7.47;;;4.72;;
52266;SDS011;38223;50.940;4.034;2023-03-01T14:08:35;6.28;;;5.67;;
52266;SDS011;38223;50.940;4.034;2023-03-01T14:19:30;6.75;;;6.12;;
52266;SDS011;38223;50.940;4.034;2023-03-01T14:22:13;6.70;;;6.10;;
52266;SDS011;38223;50.940;4.034;2023-03-01T14:25:01;7.22;;;6.53;;
52266;SDS011;38223;50.940;4.034;2023-03-01T14:27:35;6.45;;;5.95;;
52266;SDS011;38223;50.940;4.034;2023-03-01T14:30:12;6.40;;;5.78;;
52266;SDS011;38223;50.940;4.034;2023-03-01T14:32:56;7.67;;;5.92;;
52266;SDS011;38223;50.940;4.034;2023-03-01T14:35:27;7.95;;;6.53;;
52266;SDS011;38223;50.940;4.034;2023-03-01T14:37:56;8.43;;;5.78;;
52266;SDS011;38223;50.940;4.034;2023-03-01T14:40:28;8.48;;;5.78;;
52266;SDS011;38223;50.940;4.034;2023-03-01T14:42:59;6.55;;;5.95;;
52266;SDS011;38223;50.940;4.034;2023-03-01T14:47:58;12.60;;;6.22;;
52266;SDS011;38223;50.940;4.034;2023-03-01T14:50:34;10.53;;;6.17;;
52266;SDS011;38223;50.940;4.034;2023-03-01T14:53:03;6.97;;;6.17;;
52266;SDS011;38223;50.940;4.034;2023-03-01T14:55:34;9.53;;;6.53;;
52266;SDS011;38223;50.940;4.034;2023-03-01T14:58:04;7.35;;;6.62;;
52266;SDS011;38223;50.940;4.034;2023-03-01T15:00:34;6.95;;;6.35;;
52266;SDS011;38223;50.940;4.034;2023-03-01T15:03:07;5.28;;;4.80;;
52266;SDS011;38223;50.940;4.034;2023-03-01T15:05:38;6.05;;;5.55;;
52266;SDS011;38223;50.940;4.034;2023-03-01T15:08:11;6.85;;;6.25;;
52266;SDS011;38223;50.940;4.034;2023-03-01T15:10:41;10.58;;;5.70;;
52266;SDS011;38223;50.940;4.034;2023-03-01T15:15:48;7.10;;;6.50;;
52266;SDS011;38223;50.940;4.034;2023-03-01T15:18:25;5.87;;;5.37;;
52266;SDS011;38223;50.940;4.034;2023-03-01T15:21:05;5.95;;;5.37;;
52266;SDS011;38223;50.940;4.034;2023-03-01T15:23:37;6.50;;;5.80;;
52266;SDS011;38223;50.940;4.034;2023-03-01T15:26:06;6.60;;;5.90;;
52266;SDS011;38223;50.940;4.034;2023-03-01T15:28:37;6.03;;;5.53;;
52266;SDS011;38223;50.940;4.034;2023-03-01T15:31:19;5.67;;;4.83;;
52266;SDS011;38223;50.940;4.034;2023-03-01T15:33:51;5.22;;;4.72;;
52266;SDS011;38223;50.940;4.034;2023-03-01T15:42:35;6.12;;;5.53;;
52266;SDS011;38223;50.940;4.034;2023-03-01T15:47:47;7.53;;;5.97;;
52266;SDS011;38223;50.940;4.034;2023-03-01T15:50:19;6.65;;;6.03;;
52266;SDS011;38223;50.940;4.034;2023-03-01T15:52:54;5.28;;;4.87;;
52266;SDS011;38223;50.940;4.034;2023-03-01T15:55:25;7.22;;;6.62;;
52266;SDS011;38223;50.940;4.034;2023-03-01T15:58:05;6.87;;;5.75;;
52266;SDS011;38223;50.940;4.034;2023-03-01T16:00:38;8.10;;;5.50;;
52266;SDS011;38223;50.940;4.034;2023-03-01T16:03:12;12.23;;;6.03;;
52266;SDS011;38223;50.940;4.034;2023-03-01T16:05:43;10.18;;;7.10;;
52266;SDS011;38223;50.940;4.034;2023-03-01T16:08:10;17.48;;;7.28;;
52266;SDS011;38223;50.940;4.034;2023-03-01T16:10:38;11.68;;;6.30;;
52266;SDS011;38223;50.940;4.034;2023-03-01T16:13:08;8.90;;;7.05;;
52266;SDS011;38223;50.940;4.034;2023-03-01T16:15:39;8.25;;;6.70;;
52266;SDS011;38223;50.940;4.034;2023-03-01T16:18:07;11.78;;;8.50;;
52266;SDS011;38223;50.940;4.034;2023-03-01T16:20:37;8.00;;;6.92;;
52266;SDS011;38223;50.940;4.034;2023-03-01T16:23:10;6.87;;;6.28;;
52266;SDS011;38223;50.940;4.034;2023-03-01T16:25:43;7.90;;;7.10;;
52266;SDS011;38223;50.940;4.034;2023-03-01T16:28:11;8.03;;;7.33;;
52266;SDS011;38223;50.940;4.034;2023-03-01T16:30:39;7.87;;;6.90;;
52266;SDS011;38223;50.940;4.034;2023-03-01T16:33:09;7.75;;;7.05;;
52266;SDS011;38223;50.940;4.034;2023-03-01T16:35:39;10.50;;;6.83;;
52266;SDS011;38223;50.940;4.034;2023-03-01T16:38:06;10.25;;;7.40;;
52266;SDS011;38223;50.940;4.034;2023-03-01T16:40:34;10.15;;;7.28;;
52266;SDS011;38223;50.940;4.034;2023-03-01T16:43:02;9.20;;;7.10;;
52266;SDS011;38223;50.940;4.034;2023-03-01T16:45:36;7.47;;;6.78;;
52266;SDS011;38223;50.940;4.034;2023-03-01T16:48:06;7.70;;;6.90;;
52266;SDS011;38223;50.940;4.034;2023-03-01T16:50:36;8.15;;;7.35;;
52266;SDS011;38223;50.940;4.034;2023-03-01T16:53:10;7.90;;;7.10;;
52266;SDS011;38223;50.940;4.034;2023-03-01T16:55:40;8.18;;;7.47;;
52266;SDS011;38223;50.940;4.034;2023-03-01T16:58:09;8.63;;;7.77;;
52266;SDS011;38223;50.940;4.034;2023-03-01T17:00:37;8.25;;;7.45;;
52266;SDS011;38223;50.940;4.034;2023-03-01T17:03:04;8.43;;;7.65;;
52266;SDS011;38223;50.940;4.034;2023-03-01T17:05:32;7.97;;;7.17;;
52266;SDS011;38223;50.940;4.034;2023-03-01T17:07:59;8.53;;;7.67;;
52266;SDS011;38223;50.940;4.034;2023-03-01T17:10:30;9.03;;;7.42;;
52266;SDS011;38223;50.940;4.034;2023-03-01T17:13:02;9.05;;;8.25;;
52266;SDS011;38223;50.940;4.034;2023-03-01T17:15:30;8.68;;;7.87;;
52266;SDS011;38223;50.940;4.034;2023-03-01T17:17:57;8.15;;;7.45;;